createdAt,value
2023-01-23T03:09:27.690Z,94389.69
2023-01-23T03:14:32.468Z,94907.16
2023-01-23T03:19:36.439Z,94907.16
2023-01-23T03:24:42.851Z,94907.16
2023-01-23T03:30:03.943Z,94648.41
2023-01-23T03:35:10.259Z,94389.69
2023-01-23T03:40:36.780Z,93872.25
2023-01-23T03:45:41.766Z,94130.97
2023-01-23T03:50:45.464Z,93872.25
2023-01-23T03:55:50.788Z,94130.97
2023-01-23T04:00:55.342Z,94130.97
2023-01-23T04:06:00.114Z,94130.97
2023-01-23T04:16:49.478Z,93613.56
2023-01-23T04:21:53.503Z,93872.25
2023-01-23T04:26:57.611Z,93613.56
2023-01-23T04:32:04.816Z,93613.56
2023-01-23T04:37:11.692Z,93354.91
2023-01-23T04:42:16.208Z,93613.56
2023-01-23T04:47:30.290Z,93613.56
2023-01-23T04:52:34.831Z,93872.25
2023-01-23T04:57:38.457Z,93613.56
2023-01-23T05:02:59.270Z,93872.25
2023-01-23T05:08:03.310Z,94389.69
2023-01-23T05:13:07.462Z,94389.69
2023-01-23T05:18:12.607Z,93872.25
2023-01-23T05:23:16.736Z,94648.41
2023-01-23T05:28:25.886Z,94389.69
2023-01-23T05:33:33.681Z,94389.69
2023-01-23T05:38:37.713Z,94130.97
2023-01-23T05:43:41.652Z,93872.25
2023-01-23T05:49:05.258Z,94389.69
2023-01-23T05:54:08.847Z,94389.69
2023-01-23T05:59:12.638Z,94130.97
2023-01-23T06:04:22.475Z,93872.25
2023-01-23T06:09:55.189Z,94130.97
2023-01-23T06:14:58.736Z,94130.97
2023-01-23T06:20:04.389Z,94389.69
2023-01-23T06:25:10.713Z,94389.69
2023-01-23T06:30:15.166Z,94648.41
2023-01-23T06:35:23.768Z,94648.41
2023-01-23T06:40:27.512Z,94648.41
2023-01-23T06:45:49.681Z,94389.69
2023-01-23T06:51:01.400Z,94389.69
2023-01-23T06:56:08.072Z,94648.41
2023-01-23T07:01:16.920Z,94389.69
2023-01-23T07:06:40.714Z,94389.69
2023-01-23T07:16:56.388Z,94389.69
2023-01-23T07:22:02.319Z,94648.41
2023-01-23T07:27:06.037Z,94907.16
2023-01-23T07:32:11.419Z,94907.16
2023-01-23T07:37:15.064Z,94907.16
2023-01-23T07:42:18.604Z,94907.16
2023-01-23T07:47:23.650Z,94648.41
2023-01-23T07:52:27.431Z,94648.41
2023-01-23T07:57:31.055Z,94907.16
2023-01-23T08:02:35.992Z,94907.16
2023-01-23T08:07:39.985Z,94907.16
2023-01-23T08:12:43.594Z,95165.91
2023-01-23T08:17:48.594Z,95424.69
2023-01-23T08:22:52.185Z,95165.91
2023-01-23T08:27:55.942Z,94907.16
2023-01-23T08:33:01.150Z,95165.91
2023-01-23T08:38:05.394Z,95424.69
2023-01-23T08:43:10.641Z,95424.69
2023-01-23T08:48:15.714Z,95683.50
2023-01-23T08:53:19.399Z,95942.31
2023-01-23T08:58:23.386Z,95683.50
2023-01-23T09:03:29.155Z,95683.50
2023-01-23T09:08:33.259Z,95683.50
2023-01-23T09:13:38.057Z,95683.50
2023-01-23T09:18:43.186Z,95942.31
2023-01-23T09:23:46.929Z,96201.16
2023-01-23T09:28:50.754Z,96718.84
2023-01-23T09:33:55.773Z,96460.00
2023-01-23T09:38:59.371Z,96460.00
2023-01-23T09:44:10.224Z,96977.75
2023-01-23T09:49:25.900Z,96977.75
2023-01-23T09:54:44.603Z,97236.63
2023-01-23T10:00:00.652Z,97236.63
2023-01-23T10:05:13.839Z,97236.63
2023-01-23T10:10:49.296Z,97236.63
2023-01-23T10:16:11.966Z,97754.47
2023-01-23T10:21:33.783Z,97236.63
2023-01-23T10:26:47.703Z,97236.63
2023-01-23T10:31:53.928Z,96977.75
2023-01-23T10:37:12.585Z,96977.75
2023-01-23T10:42:20.650Z,96977.75
2023-01-23T10:47:33.243Z,96977.75
2023-01-23T10:52:41.518Z,96718.84
2023-01-23T10:57:48.984Z,96718.84
2023-01-23T11:02:52.682Z,96977.75
2023-01-23T11:07:58.074Z,97236.63
2023-01-23T11:13:03.675Z,97495.56
2023-01-23T11:18:31.323Z,97236.63
2023-01-23T11:23:36.358Z,97236.63
2023-01-23T11:28:49.426Z,97495.56
2023-01-23T11:33:57.730Z,97495.56
2023-01-23T11:39:13.385Z,96977.75
2023-01-23T11:44:19.326Z,97495.56
2023-01-23T11:49:38.334Z,97236.63
2023-01-23T11:55:01.382Z,97754.47
2023-01-23T12:00:22.646Z,97236.63
2023-01-23T12:05:47.881Z,97495.56
2023-01-23T12:11:02.386Z,97495.56
2023-01-23T12:16:14.854Z,97495.56
2023-01-23T12:21:20.313Z,97495.56
2023-01-23T12:26:28.702Z,97754.47
2023-01-23T12:31:54.701Z,98013.44
2023-01-23T12:37:29.050Z,98013.44
2023-01-23T12:42:42.438Z,98272.41
2023-01-23T12:47:54.020Z,98013.44
2023-01-23T12:53:02.462Z,98272.41
2023-01-23T12:58:12.338Z,98272.41
2023-01-23T13:03:45.693Z,98272.41
2023-01-23T13:09:12.058Z,98272.41
2023-01-23T13:14:25.550Z,98272.41
2023-01-23T13:19:58.273Z,98013.44
2023-01-23T13:25:13.160Z,98013.44
2023-01-23T13:30:41.746Z,98013.44
2023-01-23T13:36:16.550Z,97754.47
2023-01-23T13:41:31.224Z,98013.44
2023-01-23T14:20:40.115Z,97754.47
2023-01-23T14:25:43.781Z,97495.56
2023-01-23T14:30:59.064Z,97236.63
2023-01-23T14:36:04.333Z,97236.63
2023-01-23T14:41:08.980Z,96977.75
2023-01-23T14:46:19.463Z,96977.75
2023-01-23T14:51:28.379Z,96718.84
2023-01-23T14:56:34.490Z,96977.75
2023-01-23T15:01:38.195Z,96718.84
2023-01-23T15:06:43.573Z,96460.00
2023-01-23T15:11:49.641Z,96201.16
2023-01-23T15:17:07.363Z,96460.00
2023-01-23T15:22:20.630Z,96201.16
2023-01-23T15:27:46.785Z,95942.31
2023-01-23T15:32:50.455Z,95942.31
2023-01-23T15:37:59.062Z,95942.31
2023-01-23T15:43:13.421Z,95683.50
2023-01-23T15:48:17.461Z,95683.50
2023-01-23T15:53:22.751Z,95424.69
2023-01-23T15:58:26.388Z,95424.69
2023-01-23T16:03:29.977Z,95165.91
2023-01-23T16:08:35.038Z,95165.91
2023-01-23T16:13:38.723Z,95165.91
2023-01-23T16:18:42.520Z,95165.91
2023-01-23T16:23:48.100Z,95165.91
2023-01-23T16:28:52.888Z,95424.69
2023-01-23T16:33:58.476Z,95165.91
2023-01-23T16:39:03.793Z,95424.69
2023-01-23T16:44:11.556Z,95683.50
2023-01-23T16:49:16.350Z,95165.91
2023-01-23T16:54:22.323Z,95165.91
2023-01-23T16:59:32.684Z,95165.91
2023-01-23T17:04:36.302Z,94907.16
2023-01-23T17:09:41.336Z,95165.91
2023-01-23T17:14:47.103Z,94907.16
2023-01-23T17:19:50.785Z,95165.91
2023-01-23T17:24:55.709Z,95165.91
2023-01-23T17:29:59.284Z,94907.16
2023-01-23T17:35:05.963Z,94907.16
2023-01-23T17:40:14.612Z,95424.69
2023-01-23T17:45:20.251Z,94907.16
2023-01-23T17:50:26.144Z,94907.16
2023-01-23T17:55:33.788Z,94648.41
2023-01-23T18:00:39.906Z,94648.41
2023-01-23T18:05:43.533Z,94648.41
2023-01-23T18:10:52.915Z,94648.41
2023-01-23T18:16:04.456Z,94389.69
2023-01-23T18:21:17.856Z,94648.41
2023-01-23T18:26:33.944Z,94389.69
2023-01-23T18:31:45.258Z,94389.69
2023-01-23T18:37:03.756Z,94130.97
2023-01-23T18:42:17.093Z,94130.97
2023-01-23T18:47:21.007Z,94130.97
2023-01-23T18:52:36.137Z,94130.97
2023-01-23T18:58:22.463Z,94130.97
2023-01-23T19:03:36.377Z,94130.97
2023-01-23T19:08:40.897Z,93613.56
2023-01-23T19:13:53.019Z,93613.56
2023-01-23T19:19:15.283Z,93354.91
2023-01-23T19:24:20.944Z,93613.56
2023-01-23T19:29:26.378Z,93872.25
2023-01-23T19:34:30.002Z,93613.56
2023-01-23T19:39:33.627Z,93872.25
2023-01-23T19:44:38.592Z,93613.56
2023-01-23T19:49:42.440Z,93354.91
2023-01-23T19:54:46.102Z,93354.91
2023-01-23T19:59:51.041Z,93354.91
2023-01-23T20:04:57.794Z,93354.91
2023-01-23T20:10:01.494Z,93613.56
2023-01-23T20:15:07.551Z,93354.91
2023-01-23T20:20:12.989Z,93354.91
2023-01-23T20:25:18.466Z,93354.91
2023-01-23T20:30:24.039Z,93354.91
2023-01-23T20:35:28.330Z,93354.91
2023-01-23T20:40:32.305Z,93096.25
2023-01-23T20:45:37.277Z,93096.25
2023-01-23T20:50:44.477Z,93096.25
2023-01-23T20:55:54.157Z,93096.25
2023-01-23T21:00:59.249Z,93096.25
2023-01-23T21:06:02.910Z,93096.25
2023-01-23T21:11:08.001Z,93096.25
2023-01-23T21:16:15.657Z,93096.25
2023-01-23T21:21:22.069Z,92837.63
2023-01-23T21:26:28.349Z,92579.03
2023-01-23T21:31:40.066Z,92579.03
2023-01-23T21:36:44.288Z,92320.41
2023-01-23T21:41:47.999Z,92579.03
2023-01-23T21:46:52.984Z,92320.41
2023-01-23T21:51:56.662Z,92320.41
2023-01-23T21:57:00.363Z,92061.84
2023-01-23T22:02:05.354Z,92320.41
2023-01-23T22:07:08.906Z,92061.84
2023-01-23T22:12:12.472Z,91803.25
2023-01-23T22:17:17.446Z,92320.41
2023-01-23T22:22:20.983Z,92061.84
2023-01-23T22:27:24.573Z,91803.25
2023-01-23T22:32:29.675Z,91803.25
2023-01-23T22:37:33.220Z,92061.84
2023-01-23T22:42:37.333Z,92061.84
2023-01-23T22:47:42.312Z,92061.84
2023-01-23T22:52:45.918Z,92061.84
2023-01-23T22:57:49.677Z,92320.41
2023-01-23T23:02:54.610Z,92320.41
2023-01-23T23:07:58.205Z,92061.84
2023-01-23T23:13:01.779Z,92579.03
2023-01-23T23:18:06.862Z,92320.41
2023-01-23T23:23:10.473Z,92837.63
2023-01-23T23:28:14.018Z,92837.63
2023-01-23T23:33:19.910Z,92579.03
2023-01-23T23:38:23.654Z,92837.63
2023-01-23T23:43:27.783Z,93096.25
2023-01-23T23:48:34.205Z,93096.25
2023-01-23T23:53:38.191Z,93354.91
2023-01-23T23:58:41.830Z,93613.56
